Time;durP1;ratioP1;P1;durP2;ratioP2;P2;SDS_P1;SDS_P2;PMS_P1;PMS_P2;Temp;Humidity;BMP_temperature;BMP_pressure;BME280_temperature;BME280_humidity;BME280_pressure;Samples;Min_cycle;Max_cycle;Signal;HPM_P1;HPM_P2
2023/05/04 00:00:47;;;;;;;0.10;0.10;;;;;;;;;;5071944;28;20448;-78
2023/05/04 00:03:12;;;;;;;0.17;0.17;;;;;;;;;;5071686;28;20388;-76
2023/05/04 00:05:38;;;;;;;0.10;0.10;;;;;;;;;;5071641;28;20064;-78
2023/05/04 00:08:03;;;;;;;0.55;0.55;;;;;;;;;;5054416;28;20468;-78
2023/05/04 00:10:29;;;;;;;0.20;0.20;;;;;;;;;;5076529;28;20028;-77
2023/05/04 00:12:54;;;;;;;0.20;0.20;;;;;;;;;;5059894;28;20037;-79
2023/05/04 00:15:19;;;;;;;0.20;0.20;;;;;;;;;;5060088;28;20036;-78
2023/05/04 00:17:45;;;;;;;0.20;0.20;;;;;;;;;;5074318;28;20086;-79
2023/05/04 00:20:10;;;;;;;0.10;0.10;;;;;;;;;;5075108;28;20049;-79
2023/05/04 00:22:36;;;;;;;1.92;1.77;;;;;;;;;;5075233;28;20111;-78
2023/05/04 00:25:01;;;;;;;0.15;0.15;;;;;;;;;;5074941;28;20039;-77
2023/05/04 00:27:27;;;;;;;0.32;0.32;;;;;;;;;;5056928;28;20048;-79
2023/05/04 00:29:52;;;;;;;0.20;0.20;;;;;;;;;;5074986;28;20037;-80
2023/05/04 00:32:18;;;;;;;0.20;0.20;;;;;;;;;;5075254;28;20021;-83
2023/05/04 00:34:43;;;;;;;0.22;0.22;;;;;;;;;;5057148;28;20450;-79
2023/05/04 00:37:09;;;;;;;0.13;0.13;;;;;;;;;;5075010;28;20036;-81
2023/05/04 00:39:34;;;;;;;0.20;0.20;;;;;;;;;;5074853;28;20032;-79
2023/05/04 00:42:00;;;;;;;0.75;0.75;;;;;;;;;;5057066;28;20052;-81
2023/05/04 00:44:26;;;;;;;0.20;0.20;;;;;;;;;;5056925;28;20090;-80
2023/05/04 00:46:51;;;;;;;0.20;0.20;;;;;;;;;;5057864;28;20036;-80
2023/05/04 00:49:17;;;;;;;0.10;0.10;;;;;;;;;;5076463;28;20047;-81
2023/05/04 00:51:43;;;;;;;0.20;0.20;;;;;;;;;;5078350;28;20033;-82
2023/05/04 00:54:08;;;;;;;0.20;0.20;;;;;;;;;;5064258;28;20033;-81
2023/05/04 00:56:39;;;;;;;0.20;0.20;;;;;;;;;;5057672;28;20188;-76
2023/05/04 00:59:05;;;;;;;0.22;0.22;;;;;;;;;;5063201;28;20036;-78
2023/05/04 01:01:30;;;;;;;0.10;0.10;;;;;;;;;;5088025;28;20055;-79
2023/05/04 01:03:56;;;;;;;0.50;0.50;;;;;;;;;;5094498;28;21323;-84
2023/05/04 01:06:25;;;;;;;0.73;0.73;;;;;;;;;;5094723;28;20379;-78
2023/05/04 01:08:56;;;;;;;0.20;0.20;;;;;;;;;;5093185;28;20082;-77
2023/05/04 01:11:42;;;;;;;0.10;0.10;;;;;;;;;;5059919;28;20038;-76
2023/05/04 01:14:08;;;;;;;1.27;1.20;;;;;;;;;;5094618;28;20060;-80
2023/05/04 01:16:34;;;;;;;0.10;0.10;;;;;;;;;;5076499;28;20062;-82
2023/05/04 01:19:00;;;;;;;0.17;0.17;;;;;;;;;;5076575;28;20143;-80
2023/05/04 01:21:29;;;;;;;0.10;0.10;;;;;;;;;;5092412;28;20074;-77
2023/05/04 01:23:55;;;;;;;2.70;2.58;;;;;;;;;;5076530;28;20122;-77
2023/05/04 01:26:26;;;;;;;0.10;0.10;;;;;;;;;;5094233;28;20494;-78
2023/05/04 01:28:58;;;;;;;0.25;0.25;;;;;;;;;;5075236;28;20064;-77
2023/05/04 01:31:26;;;;;;;0.40;0.40;;;;;;;;;;5066927;28;20043;-77
2023/05/04 01:33:52;;;;;;;0.10;0.10;;;;;;;;;;5082684;28;20040;-76
2023/05/04 01:36:21;;;;;;;0.20;0.20;;;;;;;;;;5058512;28;20028;-78
2023/05/04 01:38:47;;;;;;;5.20;4.18;;;;;;;;;;5083880;28;20027;-79
2023/05/04 01:41:13;;;;;;;0.10;0.10;;;;;;;;;;5074996;28;20043;-77
2023/05/04 01:43:38;;;;;;;0.30;0.30;;;;;;;;;;5092819;28;20036;-77
2023/05/04 01:46:04;;;;;;;0.20;0.20;;;;;;;;;;5094007;28;20040;-77
2023/05/04 01:48:30;;;;;;;0.10;0.10;;;;;;;;;;5093768;28;20036;-77
2023/05/04 01:50:56;;;;;;;0.10;0.10;;;;;;;;;;5094040;28;20416;-77
2023/05/04 01:53:21;;;;;;;0.13;0.13;;;;;;;;;;5075788;28;20036;-77
2023/05/04 01:55:46;;;;;;;0.28;0.28;;;;;;;;;;5075730;28;20425;-78
2023/05/04 01:58:12;;;;;;;0.10;0.10;;;;;;;;;;5075676;28;20123;-77
2023/05/04 02:00:37;;;;;;;0.13;0.13;;;;;;;;;;5075557;28;20051;-77
2023/05/04 02:03:03;;;;;;;0.30;0.30;;;;;;;;;;5075431;28;20036;-77
2023/05/04 02:05:28;;;;;;;0.30;0.30;;;;;;;;;;5075426;28;20031;-77
2023/05/04 02:07:54;;;;;;;4.57;2.10;;;;;;;;;;5093791;28;20082;-77
2023/05/04 02:10:19;;;;;;;0.52;0.52;;;;;;;;;;5075514;28;20020;-77
2023/05/04 02:12:46;;;;;;;0.22;0.22;;;;;;;;;;5075593;28;20083;-77
2023/05/04 02:15:11;;;;;;;0.10;0.10;;;;;;;;;;5075467;28;20044;-76
2023/05/04 02:17:36;;;;;;;0.57;0.52;;;;;;;;;;5094189;28;20039;-78
2023/05/04 02:20:03;;;;;;;0.15;0.15;;;;;;;;;;5078328;28;20024;-78
2023/05/04 02:22:28;;;;;;;0.10;0.10;;;;;;;;;;5079553;28;20118;-79
2023/05/04 02:24:54;;;;;;;0.30;0.30;;;;;;;;;;5095456;28;20048;-77
2023/05/04 02:27:19;;;;;;;0.10;0.10;;;;;;;;;;5093746;28;20440;-77
2023/05/04 02:29:45;;;;;;;0.20;0.20;;;;;;;;;;5075836;28;20043;-77
2023/05/04 02:32:10;;;;;;;0.10;0.10;;;;;;;;;;5092176;28;20625;-77
2023/05/04 02:34:35;;;;;;;0.20;0.20;;;;;;;;;;5093198;28;20066;-77
2023/05/04 02:37:01;;;;;;;0.20;0.20;;;;;;;;;;5075115;28;20031;-77
2023/05/04 02:39:26;;;;;;;0.95;0.95;;;;;;;;;;5093487;28;20024;-77
2023/05/04 02:41:53;;;;;;;0.10;0.10;;;;;;;;;;5075241;28;20413;-77
2023/05/04 02:44:18;;;;;;;0.20;0.20;;;;;;;;;;5093232;28;20028;-77
2023/05/04 02:46:44;;;;;;;0.10;0.10;;;;;;;;;;5074869;28;20373;-77
2023/05/04 02:49:10;;;;;;;0.15;0.15;;;;;;;;;;5092976;28;20081;-77
2023/05/04 02:51:35;;;;;;;0.10;0.10;;;;;;;;;;5093151;28;20097;-77
2023/05/04 02:54:01;;;;;;;0.10;0.10;;;;;;;;;;5093065;28;20063;-77
2023/05/04 02:56:26;;;;;;;0.45;0.45;;;;;;;;;;5093256;28;20160;-77
2023/05/04 02:58:51;;;;;;;0.20;0.20;;;;;;;;;;5074365;28;20084;-76
2023/05/04 03:01:17;;;;;;;0.52;0.52;;;;;;;;;;5092857;28;20479;-74
2023/05/04 03:03:42;;;;;;;0.10;0.10;;;;;;;;;;5069516;28;20047;-74
2023/05/04 03:06:08;;;;;;;0.20;0.20;;;;;;;;;;5070319;28;20416;-76
2023/05/04 03:08:33;;;;;;;0.20;0.20;;;;;;;;;;5088997;28;20028;-76
2023/05/04 03:10:58;;;;;;;0.50;0.50;;;;;;;;;;5089311;28;20499;-76
2023/05/04 03:13:24;;;;;;;0.10;0.10;;;;;;;;;;5088769;28;20028;-76
2023/05/04 03:15:49;;;;;;;0.20;0.20;;;;;;;;;;5088761;28;20028;-76
2023/05/04 03:18:15;;;;;;;0.35;0.35;;;;;;;;;;5088749;28;20090;-79
2023/05/04 03:20:40;;;;;;;0.10;0.10;;;;;;;;;;5087561;28;20036;-77
2023/05/04 03:23:09;;;;;;;0.20;0.20;;;;;;;;;;5070579;28;20047;-77
2023/05/04 03:25:35;;;;;;;0.13;0.13;;;;;;;;;;5070302;28;20036;-76
2023/05/04 03:28:01;;;;;;;0.20;0.20;;;;;;;;;;5087257;28;20510;-76
2023/05/04 03:30:26;;;;;;;0.10;0.10;;;;;;;;;;5088893;28;20198;-77
2023/05/04 03:32:55;;;;;;;0.20;0.20;;;;;;;;;;5086869;28;20035;-77
2023/05/04 03:35:21;;;;;;;0.10;0.10;;;;;;;;;;5087273;28;20551;-76
2023/05/04 03:37:46;;;;;;;0.10;0.10;;;;;;;;;;5086649;28;20043;-76
2023/05/04 03:40:12;;;;;;;0.20;0.20;;;;;;;;;;5088664;28;20046;-77
2023/05/04 03:42:38;;;;;;;0.28;0.28;;;;;;;;;;5088252;28;20020;-76
2023/05/04 03:45:04;;;;;;;0.20;0.20;;;;;;;;;;5073193;28;20039;-76
2023/05/04 03:47:30;;;;;;;0.20;0.20;;;;;;;;;;5073319;28;20036;-76
2023/05/04 03:49:56;;;;;;;0.28;0.28;;;;;;;;;;5073481;28;20028;-76
2023/05/04 03:52:21;;;;;;;0.20;0.20;;;;;;;;;;5091555;28;20792;-75
2023/05/04 03:54:47;;;;;;;0.10;0.10;;;;;;;;;;5081859;28;20489;-76
2023/05/04 03:57:12;;;;;;;0.20;0.20;;;;;;;;;;5071349;28;20039;-77
2023/05/04 03:59:38;;;;;;;0.17;0.17;;;;;;;;;;5053509;28;20040;-76
2023/05/04 04:02:05;;;;;;;0.20;0.20;;;;;;;;;;5069192;28;20032;-75
2023/05/04 04:04:30;;;;;;;0.20;0.20;;;;;;;;;;5091576;28;20040;-75
2023/05/04 04:06:56;;;;;;;0.20;0.20;;;;;;;;;;5072950;28;20126;-78
2023/05/04 04:09:22;;;;;;;0.10;0.10;;;;;;;;;;5073306;28;20542;-79
2023/05/04 04:11:50;;;;;;;0.20;0.20;;;;;;;;;;5073277;28;20039;-84
2023/05/04 04:14:15;;;;;;;1.00;0.93;;;;;;;;;;5091458;28;20036;-83
2023/05/04 04:16:42;;;;;;;0.15;0.15;;;;;;;;;;5091352;28;20052;-81
2023/05/04 04:19:07;;;;;;;0.17;0.17;;;;;;;;;;5091159;28;20052;-80
2023/05/04 04:21:33;;;;;;;0.15;0.15;;;;;;;;;;5091446;28;20028;-80
2023/05/04 04:23:58;;;;;;;0.20;0.20;;;;;;;;;;5091228;28;20168;-80
2023/05/04 04:26:23;;;;;;;0.10;0.10;;;;;;;;;;5094459;28;20032;-80
2023/05/04 04:28:49;;;;;;;0.20;0.20;;;;;;;;;;5077762;28;20040;-80
2023/05/04 04:31:18;;;;;;;1.15;1.15;;;;;;;;;;5096256;28;20047;-81
2023/05/04 04:33:43;;;;;;;0.17;0.17;;;;;;;;;;5073472;28;20043;-82
2023/05/04 04:36:11;;;;;;;0.20;0.20;;;;;;;;;;5089791;28;20043;-83
2023/05/04 04:38:38;;;;;;;0.20;0.20;;;;;;;;;;5091742;28;20471;-79
2023/05/04 04:41:04;;;;;;;0.10;0.10;;;;;;;;;;5091517;28;20051;-79
2023/05/04 04:43:29;;;;;;;0.20;0.20;;;;;;;;;;5091125;28;20032;-77
2023/05/04 04:45:55;;;;;;;0.10;0.10;;;;;;;;;;5089657;28;20510;-78
2023/05/04 04:48:22;;;;;;;0.25;0.25;;;;;;;;;;5091180;28;20055;-78
2023/05/04 04:50:47;;;;;;;0.30;0.30;;;;;;;;;;5091364;28;20043;-79
2023/05/04 04:53:13;;;;;;;0.10;0.10;;;;;;;;;;5071030;28;20032;-78
2023/05/04 04:55:38;;;;;;;0.10;0.10;;;;;;;;;;5090335;28;20085;-76
2023/05/04 04:58:04;;;;;;;0.10;0.10;;;;;;;;;;5090609;28;20035;-77
2023/05/04 05:00:29;;;;;;;0.10;0.10;;;;;;;;;;5088777;28;20028;-78
2023/05/04 05:02:55;;;;;;;0.20;0.20;;;;;;;;;;5090778;28;20472;-80
2023/05/04 05:05:20;;;;;;;0.30;0.30;;;;;;;;;;5073229;28;20039;-80
2023/05/04 05:07:46;;;;;;;0.10;0.10;;;;;;;;;;5071682;28;20085;-77
2023/05/04 05:10:12;;;;;;;0.20;0.20;;;;;;;;;;5090261;28;20110;-77
2023/05/04 05:12:37;;;;;;;0.10;0.10;;;;;;;;;;5090371;28;20020;-78
2023/05/04 05:15:03;;;;;;;0.10;0.10;;;;;;;;;;5070543;28;20036;-77
2023/05/04 05:17:28;;;;;;;0.20;0.20;;;;;;;;;;5070412;28;20043;-76
2023/05/04 05:19:54;;;;;;;0.20;0.20;;;;;;;;;;5088582;28;20028;-77
2023/05/04 05:22:19;;;;;;;0.45;0.45;;;;;;;;;;5089125;28;20039;-76
2023/05/04 05:24:45;;;;;;;0.20;0.20;;;;;;;;;;5070838;28;20119;-76
2023/05/04 05:27:10;;;;;;;0.30;0.30;;;;;;;;;;5087944;28;20395;-77
2023/05/04 05:29:36;;;;;;;0.10;0.10;;;;;;;;;;5088343;28;20032;-78
2023/05/04 05:32:02;;;;;;;0.20;0.20;;;;;;;;;;5071768;28;20040;-77
2023/05/04 05:34:28;;;;;;;0.17;0.17;;;;;;;;;;5071442;28;20520;-76
2023/05/04 05:36:54;;;;;;;0.20;0.20;;;;;;;;;;5088656;28;20028;-76
2023/05/04 05:39:20;;;;;;;0.20;0.20;;;;;;;;;;5089967;28;20053;-76
2023/05/04 05:41:45;;;;;;;0.20;0.20;;;;;;;;;;5090479;28;20082;-76
2023/05/04 05:44:11;;;;;;;0.10;0.10;;;;;;;;;;5069634;28;20043;-76
2023/05/04 05:46:36;;;;;;;0.30;0.30;;;;;;;;;;5087919;28;20118;-76
2023/05/04 05:49:04;;;;;;;0.20;0.20;;;;;;;;;;5070018;28;20581;-77
2023/05/04 05:51:30;;;;;;;0.20;0.20;;;;;;;;;;5054696;28;20522;-77
2023/05/04 05:53:55;;;;;;;0.20;0.20;;;;;;;;;;5080910;28;20032;-77
2023/05/04 05:56:21;;;;;;;0.20;0.20;;;;;;;;;;5088869;28;20024;-79
2023/05/04 05:58:46;;;;;;;0.20;0.20;;;;;;;;;;5072083;28;20481;-79
2023/05/04 06:01:12;;;;;;;0.20;0.20;;;;;;;;;;5088223;28;20166;-82
2023/05/04 06:03:37;;;;;;;0.13;0.13;;;;;;;;;;5088716;28;20399;-79
2023/05/04 06:06:03;;;;;;;1.38;1.33;;;;;;;;;;5087780;28;20066;-81
2023/05/04 06:08:28;;;;;;;0.20;0.20;;;;;;;;;;5070722;28;20028;-85
2023/05/04 06:10:55;;;;;;;0.28;0.28;;;;;;;;;;5086073;28;20060;-81
2023/05/04 06:13:20;;;;;;;0.55;0.55;;;;;;;;;;5089761;28;20056;-85
2023/05/04 06:15:52;;;;;;;0.20;0.20;;;;;;;;;;5089512;28;20067;-85
2023/05/04 06:18:18;;;;;;;0.25;0.25;;;;;;;;;;5087308;28;20529;-85
2023/05/04 06:20:44;;;;;;;0.20;0.20;;;;;;;;;;5071244;28;20036;-80
2023/05/04 06:23:10;;;;;;;0.20;0.20;;;;;;;;;;5070699;28;20078;-80
2023/05/04 06:25:35;;;;;;;0.45;0.45;;;;;;;;;;5089695;28;20032;-79
2023/05/04 06:28:01;;;;;;;0.17;0.17;;;;;;;;;;5089121;28;20063;-80
2023/05/04 06:30:26;;;;;;;0.20;0.20;;;;;;;;;;5052603;28;20028;-80
2023/05/04 06:32:52;;;;;;;0.20;0.20;;;;;;;;;;5089441;28;20111;-79
2023/05/04 06:35:17;;;;;;;0.20;0.20;;;;;;;;;;5091403;28;20032;-80
2023/05/04 06:37:43;;;;;;;0.20;0.20;;;;;;;;;;5092335;28;20090;-80
2023/05/04 06:40:09;;;;;;;0.17;0.17;;;;;;;;;;5089349;28;20563;-80
2023/05/04 06:42:34;;;;;;;0.20;0.20;;;;;;;;;;5088040;28;20033;-80
2023/05/04 06:44:59;;;;;;;0.20;0.20;;;;;;;;;;5088313;28;20068;-80
2023/05/04 06:47:25;;;;;;;0.20;0.20;;;;;;;;;;5087014;28;20028;-80
2023/05/04 06:49:50;;;;;;;0.20;0.20;;;;;;;;;;5089485;28;20116;-80
2023/05/04 06:52:15;;;;;;;0.20;0.20;;;;;;;;;;5088673;28;20130;-81
2023/05/04 06:54:41;;;;;;;0.20;0.20;;;;;;;;;;5089377;28;20032;-80
2023/05/04 06:57:06;;;;;;;0.20;0.20;;;;;;;;;;5089367;28;20040;-81
2023/05/04 06:59:32;;;;;;;0.20;0.20;;;;;;;;;;5088054;28;20028;-81
2023/05/04 07:01:57;;;;;;;0.20;0.20;;;;;;;;;;5088901;28;20032;-94
2023/05/04 07:04:23;;;;;;;0.30;0.30;;;;;;;;;;5089915;28;20027;-93
2023/05/04 07:06:49;;;;;;;0.13;0.13;;;;;;;;;;5089999;28;20043;-92
2023/05/04 07:09:15;;;;;;;0.43;0.43;;;;;;;;;;5089610;28;20584;-93
2023/05/04 07:11:40;;;;;;;0.22;0.22;;;;;;;;;;5088338;28;20039;-81
2023/05/04 07:14:06;;;;;;;0.20;0.20;;;;;;;;;;5086364;28;20028;-82
2023/05/04 07:16:31;;;;;;;0.20;0.20;;;;;;;;;;5070699;28;20036;-81
2023/05/04 07:18:57;;;;;;;0.30;0.30;;;;;;;;;;5091416;28;20027;-82
2023/05/04 07:21:23;;;;;;;0.22;0.22;;;;;;;;;;5092707;28;20032;-82
2023/05/04 07:23:48;;;;;;;0.63;0.57;;;;;;;;;;5073016;28;20127;-87
2023/05/04 07:26:14;;;;;;;0.98;0.95;;;;;;;;;;5092111;28;20051;-85
2023/05/04 07:28:42;;;;;;;0.25;0.25;;;;;;;;;;5092520;28;20047;-84
2023/05/04 07:31:08;;;;;;;0.85;0.50;;;;;;;;;;5093065;28;20082;-86
2023/05/04 07:33:33;;;;;;;0.20;0.20;;;;;;;;;;5073440;28;20071;-85
2023/05/04 07:35:59;;;;;;;0.30;0.30;;;;;;;;;;5072663;28;20051;-84
2023/05/04 07:38:25;;;;;;;0.20;0.20;;;;;;;;;;5092154;28;20024;-83
2023/05/04 07:40:51;;;;;;;0.60;0.45;;;;;;;;;;5092236;28;20031;-85
2023/05/04 07:43:17;;;;;;;0.20;0.20;;;;;;;;;;5092230;28;20540;-83
2023/05/04 07:45:42;;;;;;;0.30;0.30;;;;;;;;;;5094085;28;20028;-85
2023/05/04 07:48:07;;;;;;;0.57;0.57;;;;;;;;;;5094238;28;20028;-86
2023/05/04 07:50:33;;;;;;;3.03;0.70;;;;;;;;;;5075471;28;20036;-85
2023/05/04 07:52:59;;;;;;;0.20;0.20;;;;;;;;;;5090686;28;20488;-87
2023/05/04 07:55:27;;;;;;;0.20;0.20;;;;;;;;;;5092048;28;20036;-84
2023/05/04 07:57:52;;;;;;;0.20;0.20;;;;;;;;;;5090740;28;20140;-83
2023/05/04 08:00:18;;;;;;;0.47;0.47;;;;;;;;;;5073980;28;20045;-84
2023/05/04 08:02:44;;;;;;;0.30;0.30;;;;;;;;;;5071385;28;20108;-83
2023/05/04 08:05:09;;;;;;;1.40;0.95;;;;;;;;;;5090786;28;20535;-86
2023/05/04 08:07:34;;;;;;;1.23;0.93;;;;;;;;;;5071859;28;20047;-85
2023/05/04 08:10:00;;;;;;;0.30;0.30;;;;;;;;;;5091261;28;20484;-86
2023/05/04 08:12:25;;;;;;;0.60;0.60;;;;;;;;;;5091896;28;20055;-85
2023/05/04 08:14:51;;;;;;;0.20;0.20;;;;;;;;;;5091766;28;20020;-79
2023/05/04 08:17:16;;;;;;;0.20;0.20;;;;;;;;;;5091058;28;20024;-83
2023/05/04 08:19:42;;;;;;;0.20;0.20;;;;;;;;;;5089446;28;20032;-81
2023/05/04 08:22:08;;;;;;;2.20;1.08;;;;;;;;;;5091354;28;20474;-84
2023/05/04 08:24:33;;;;;;;1.05;0.73;;;;;;;;;;5091592;28;20035;-82
2023/05/04 08:27:00;;;;;;;2.15;2.05;;;;;;;;;;5089783;28;20040;-82
2023/05/04 08:29:25;;;;;;;0.20;0.20;;;;;;;;;;5091169;28;20550;-84
2023/05/04 08:31:52;;;;;;;2.58;1.65;;;;;;;;;;5090074;28;20124;-80
2023/05/04 08:34:18;;;;;;;3.63;1.80;;;;;;;;;;5091305;28;20032;-80
2023/05/04 08:36:43;;;;;;;0.20;0.20;;;;;;;;;;5093907;28;20035;-87
2023/05/04 08:39:10;;;;;;;1.08;0.82;;;;;;;;;;5095528;28;20475;-86
2023/05/04 08:41:38;;;;;;;0.30;0.30;;;;;;;;;;5092917;28;20475;-86
2023/05/04 08:44:05;;;;;;;0.35;0.35;;;;;;;;;;5096163;28;20114;-85
2023/05/04 08:46:31;;;;;;;0.20;0.20;;;;;;;;;;5093564;28;20181;-86
2023/05/04 08:48:56;;;;;;;0.30;0.30;;;;;;;;;;5084597;28;20028;-79
2023/05/04 08:51:22;;;;;;;0.20;0.20;;;;;;;;;;5072924;28;20418;-78
2023/05/04 08:53:49;;;;;;;2.83;2.63;;;;;;;;;;5073622;28;20699;-79
2023/05/04 08:56:15;;;;;;;0.80;0.80;;;;;;;;;;5066931;28;20189;-78
2023/05/04 08:58:46;;;;;;;0.65;0.55;;;;;;;;;;5070510;28;20111;-79
2023/05/04 09:01:12;;;;;;;0.55;0.50;;;;;;;;;;5087936;28;20074;-79
2023/05/04 09:03:38;;;;;;;1.42;1.00;;;;;;;;;;5071325;28;20055;-79
2023/05/04 09:06:05;;;;;;;5.38;2.95;;;;;;;;;;5075147;28;20577;-79
2023/05/04 09:08:31;;;;;;;0.20;0.20;;;;;;;;;;5070742;28;20044;-79
2023/05/04 09:10:56;;;;;;;0.30;0.30;;;;;;;;;;5077199;28;20028;-79
2023/05/04 09:13:22;;;;;;;1.38;0.60;;;;;;;;;;5070955;28;20523;-78
2023/05/04 09:15:54;;;;;;;0.68;0.60;;;;;;;;;;5088442;28;20032;-78
2023/05/04 09:18:20;;;;;;;0.20;0.20;;;;;;;;;;5072275;28;20032;-80
2023/05/04 09:20:46;;;;;;;1.35;0.90;;;;;;;;;;5082309;28;20036;-78
2023/05/04 09:23:12;;;;;;;0.30;0.30;;;;;;;;;;5090812;28;20067;-78
2023/05/04 09:25:48;;;;;;;1.20;0.88;;;;;;;;;;5070188;28;20427;-79
2023/05/04 09:28:13;;;;;;;1.20;0.98;;;;;;;;;;5056088;28;20032;-79
2023/05/04 09:30:39;;;;;;;2.15;1.33;;;;;;;;;;5083844;28;20038;-79
2023/05/04 09:33:05;;;;;;;4.13;0.80;;;;;;;;;;5083359;28;20032;-78
2023/05/04 09:35:31;;;;;;;0.55;0.55;;;;;;;;;;5077152;28;20082;-79
2023/05/04 09:37:56;;;;;;;0.30;0.30;;;;;;;;;;5078474;28;20033;-80
2023/05/04 09:40:28;;;;;;;1.00;0.77;;;;;;;;;;5081589;28;20032;-78
2023/05/04 09:42:57;;;;;;;1.63;0.93;;;;;;;;;;5076809;28;20035;-80
2023/05/04 09:45:22;;;;;;;0.30;0.30;;;;;;;;;;5078642;28;20056;-80
2023/05/04 09:47:51;;;;;;;0.20;0.20;;;;;;;;;;5077493;28;20345;-80
2023/05/04 09:50:18;;;;;;;0.20;0.20;;;;;;;;;;5081540;28;20051;-78
2023/05/04 09:52:44;;;;;;;0.20;0.20;;;;;;;;;;5073972;28;20035;-78
2023/05/04 09:55:13;;;;;;;0.65;0.60;;;;;;;;;;5059440;28;20082;-79
2023/05/04 09:57:38;;;;;;;;;;;;;;;;;;5065637;28;20024;-78
2023/05/04 10:00:04;;;;;;;2.87;2.00;;;;;;;;;;5077045;28;19939;-80
2023/05/04 10:02:32;;;;;;;2.20;1.42;;;;;;;;;;5065708;28;20994;-81
2023/05/04 10:04:58;;;;;;;0.20;0.20;;;;;;;;;;5089744;28;20036;-80
2023/05/04 10:07:24;;;;;;;0.68;0.60;;;;;;;;;;5089518;28;20045;-80
2023/05/04 10:09:51;;;;;;;0.75;0.68;;;;;;;;;;5086414;28;20028;-79
2023/05/04 10:12:16;;;;;;;2.25;1.45;;;;;;;;;;5061446;28;20357;-80
2023/05/04 10:14:45;;;;;;;2.72;1.35;;;;;;;;;;5069314;28;20054;-80
2023/05/04 10:17:11;;;;;;;0.55;0.55;;;;;;;;;;5069492;28;20124;-80
2023/05/04 10:19:39;;;;;;;3.30;1.10;;;;;;;;;;5079214;28;20107;-80
2023/05/04 10:22:24;;;;;;;1.93;1.27;;;;;;;;;;5076324;28;20128;-79
2023/05/04 10:25:13;;;;;;;0.20;0.20;;;;;;;;;;5072322;28;20029;-80
2023/05/04 10:27:39;;;;;;;1.30;1.10;;;;;;;;;;5066078;28;20052;-78
2023/05/04 10:30:05;;;;;;;1.20;0.85;;;;;;;;;;5068852;28;20035;-79
2023/05/04 10:32:30;;;;;;;0.38;0.35;;;;;;;;;;5079125;28;20032;-83
2023/05/04 10:35:05;;;;;;;2.33;1.17;;;;;;;;;;5070381;28;20036;-80
2023/05/04 10:37:31;;;;;;;1.38;1.00;;;;;;;;;;5068891;28;20032;-78
2023/05/04 10:39:57;;;;;;;1.00;0.70;;;;;;;;;;5069099;28;20085;-77
2023/05/04 10:42:22;;;;;;;0.88;0.80;;;;;;;;;;5069297;28;20029;-76
2023/05/04 10:44:54;;;;;;;0.20;0.20;;;;;;;;;;5069377;28;20503;-78
2023/05/04 10:47:31;;;;;;;2.80;1.65;;;;;;;;;;5070798;28;20032;-78
2023/05/04 10:50:03;;;;;;;1.05;0.95;;;;;;;;;;5079185;28;20067;-77
2023/05/04 10:52:30;;;;;;;2.85;1.83;;;;;;;;;;5071213;28;20038;-77
2023/05/04 10:55:00;;;;;;;1.20;0.90;;;;;;;;;;5077609;28;20365;-77
2023/05/04 10:57:27;;;;;;;5.05;1.80;;;;;;;;;;5077734;28;20059;-77
2023/05/04 10:59:55;;;;;;;0.85;0.65;;;;;;;;;;5089000;28;20119;-80
2023/05/04 11:02:21;;;;;;;2.95;1.33;;;;;;;;;;5088832;28;20035;-78
2023/05/04 11:04:57;;;;;;;0.30;0.30;;;;;;;;;;5089310;28;20168;-77
2023/05/04 11:07:31;;;;;;;0.52;0.50;;;;;;;;;;5070830;28;20086;-77
2023/05/04 11:09:57;;;;;;;1.48;0.82;;;;;;;;;;5088812;28;20039;-78
2023/05/04 11:12:22;;;;;;;2.40;1.42;;;;;;;;;;5089204;28;20107;-78
2023/05/04 11:14:48;;;;;;;2.85;1.20;;;;;;;;;;5088739;28;20448;-78
2023/05/04 11:17:14;;;;;;;0.25;0.25;;;;;;;;;;5088384;28;20040;-79
2023/05/04 11:19:48;;;;;;;0.32;0.32;;;;;;;;;;5088629;28;20169;-78
2023/05/04 11:22:13;;;;;;;0.40;0.40;;;;;;;;;;5088761;28;20055;-77
2023/05/04 11:24:43;;;;;;;0.20;0.20;;;;;;;;;;5070801;28;20480;-81
2023/05/04 11:27:28;;;;;;;0.50;0.50;;;;;;;;;;5088522;28;20372;-79
2023/05/04 11:30:00;;;;;;;0.50;0.50;;;;;;;;;;5088229;28;20044;-78
2023/05/04 11:32:52;;;;;;;1.38;1.27;;;;;;;;;;5081276;28;20031;-77
2023/05/04 11:35:18;;;;;;;1.98;1.38;;;;;;;;;;5075771;28;20037;-78
2023/05/04 11:37:45;;;;;;;3.80;1.35;;;;;;;;;;5055684;28;20044;-78
2023/05/04 11:40:18;;;;;;;4.25;1.58;;;;;;;;;;5079583;28;20041;-78
2023/05/04 11:42:43;;;;;;;4.07;1.88;;;;;;;;;;5061655;28;20024;-78
2023/05/04 11:45:10;;;;;;;0.98;0.85;;;;;;;;;;5075097;28;20035;-79
2023/05/04 11:47:36;;;;;;;1.58;1.35;;;;;;;;;;5068349;28;20032;-78
2023/05/04 11:50:02;;;;;;;2.05;1.30;;;;;;;;;;5088083;28;20487;-80
2023/05/04 11:52:29;;;;;;;1.80;1.27;;;;;;;;;;5088594;28;20032;-80
2023/05/04 11:54:57;;;;;;;1.20;0.73;;;;;;;;;;5088154;28;20058;-79
2023/05/04 11:57:23;;;;;;;2.78;1.60;;;;;;;;;;5087450;28;20399;-79
2023/05/04 11:59:48;;;;;;;0.95;0.75;;;;;;;;;;5088125;28;20032;-80
2023/05/04 12:02:15;;;;;;;3.13;2.08;;;;;;;;;;5088007;28;20095;-79
2023/05/04 12:04:40;;;;;;;2.38;1.67;;;;;;;;;;5089798;28;20031;-78
2023/05/04 12:07:07;;;;;;;0.98;0.68;;;;;;;;;;5082399;28;20040;-79
2023/05/04 12:09:42;;;;;;;2.08;1.55;;;;;;;;;;5073389;28;20910;-79
2023/05/04 12:12:07;;;;;;;3.00;1.83;;;;;;;;;;5079869;28;20035;-80
2023/05/04 12:14:33;;;;;;;8.30;2.00;;;;;;;;;;5091485;28;20040;-80
2023/05/04 12:17:01;;;;;;;2.22;1.40;;;;;;;;;;5091466;28;20025;-80
2023/05/04 12:19:27;;;;;;;0.57;0.57;;;;;;;;;;5090725;28;20602;-80
2023/05/04 12:21:53;;;;;;;1.58;1.02;;;;;;;;;;5090884;28;20111;-80
2023/05/04 12:24:22;;;;;;;3.45;1.83;;;;;;;;;;5091078;28;20055;-80
2023/05/04 12:26:47;;;;;;;;;;;;;;;;;;5091848;28;20036;-80
2023/05/04 12:29:13;;;;;;;2.80;1.90;;;;;;;;;;5091522;28;19962;-79
2023/05/04 12:31:38;;;;;;;3.70;2.20;;;;;;;;;;5091288;28;20046;-80
2023/05/04 12:34:03;;;;;;;3.28;2.83;;;;;;;;;;5073128;28;20016;-78
2023/05/04 12:36:29;;;;;;;3.85;1.95;;;;;;;;;;5091084;28;20383;-79
2023/05/04 12:38:54;;;;;;;1.02;0.50;;;;;;;;;;5090970;28;20024;-80
2023/05/04 12:41:20;;;;;;;2.80;1.98;;;;;;;;;;5091522;28;20043;-79
2023/05/04 12:43:45;;;;;;;0.30;0.30;;;;;;;;;;5090724;28;20024;-79
2023/05/04 12:46:11;;;;;;;0.40;0.40;;;;;;;;;;5090717;28;20028;-80
2023/05/04 12:48:36;;;;;;;2.17;1.60;;;;;;;;;;5091269;28;20036;-79
2023/05/04 12:51:04;;;;;;;1.88;1.48;;;;;;;;;;5090621;28;20510;-80
2023/05/04 12:53:31;;;;;;;0.40;0.35;;;;;;;;;;5091420;28;20534;-79
2023/05/04 12:55:57;;;;;;;0.38;0.38;;;;;;;;;;5073512;28;20069;-80
2023/05/04 12:58:22;;;;;;;2.47;1.35;;;;;;;;;;5092014;28;20114;-80
2023/05/04 13:00:47;;;;;;;1.73;1.52;;;;;;;;;;5091067;28;20028;-78
2023/05/04 13:03:15;;;;;;;0.52;0.47;;;;;;;;;;5090706;28;20051;-81
2023/05/04 13:05:41;;;;;;;2.13;1.75;;;;;;;;;;5072979;28;20136;-81
2023/05/04 13:08:07;;;;;;;2.78;1.40;;;;;;;;;;5090615;28;20122;-81
2023/05/04 13:10:32;;;;;;;0.88;0.75;;;;;;;;;;5072847;28;20499;-82
2023/05/04 13:12:58;;;;;;;0.20;0.20;;;;;;;;;;5090998;28;20038;-81
2023/05/04 13:15:23;;;;;;;0.30;0.30;;;;;;;;;;5090199;28;20320;-81
2023/05/04 13:17:48;;;;;;;1.02;0.93;;;;;;;;;;5090011;28;20179;-81
2023/05/04 13:20:14;;;;;;;3.45;2.28;;;;;;;;;;5090582;28;20107;-81
2023/05/04 13:22:40;;;;;;;4.40;1.70;;;;;;;;;;5090223;28;20460;-79
2023/05/04 13:25:06;;;;;;;2.70;1.50;;;;;;;;;;5090300;28;20038;-81
2023/05/04 13:27:32;;;;;;;0.75;0.75;;;;;;;;;;5090621;28;20335;-80
2023/05/04 13:30:00;;;;;;;5.88;1.48;;;;;;;;;;5090543;28;20115;-80
2023/05/04 13:32:26;;;;;;;0.90;0.70;;;;;;;;;;5090530;28;20101;-80
2023/05/04 13:34:51;;;;;;;2.63;1.10;;;;;;;;;;5090174;28;20480;-80
2023/05/04 13:37:17;;;;;;;1.30;0.73;;;;;;;;;;5090073;28;20082;-80
2023/05/04 13:39:43;;;;;;;0.30;0.30;;;;;;;;;;5090213;28;20510;-80
2023/05/04 13:42:09;;;;;;;0.68;0.57;;;;;;;;;;5089880;28;20028;-80
2023/05/04 13:44:35;;;;;;;1.63;1.08;;;;;;;;;;5090583;28;20020;-80
2023/05/04 13:47:00;;;;;;;1.42;0.90;;;;;;;;;;5090156;28;20498;-79
2023/05/04 13:49:26;;;;;;;1.98;1.45;;;;;;;;;;5090057;28;20032;-80
2023/05/04 13:51:53;;;;;;;2.10;1.48;;;;;;;;;;5089583;28;20498;-79
2023/05/04 13:54:19;;;;;;;2.00;1.40;;;;;;;;;;5089767;28;20024;-80
2023/05/04 13:56:44;;;;;;;1.63;1.30;;;;;;;;;;5089903;28;20039;-80
2023/05/04 13:59:10;;;;;;;1.25;1.15;;;;;;;;;;5089917;28;20051;-80
2023/05/04 14:01:35;;;;;;;3.45;1.00;;;;;;;;;;5089886;28;20206;-79
2023/05/04 14:04:00;;;;;;;3.25;0.57;;;;;;;;;;5089665;28;20117;-80
2023/05/04 14:06:28;;;;;;;1.15;0.95;;;;;;;;;;5079786;28;20471;-80
2023/05/04 14:08:53;;;;;;;0.93;0.93;;;;;;;;;;5089536;28;20031;-79
2023/05/04 14:11:19;;;;;;;2.15;1.65;;;;;;;;;;5089811;28;20357;-79
2023/05/04 14:13:44;;;;;;;2.58;1.65;;;;;;;;;;5090081;28;20054;-80
2023/05/04 14:16:10;;;;;;;5.60;1.50;;;;;;;;;;5089279;28;20121;-79
2023/05/04 14:18:35;;;;;;;3.25;1.63;;;;;;;;;;5089413;28;20491;-78
2023/05/04 14:21:01;;;;;;;1.55;1.10;;;;;;;;;;5089352;28;20457;-80
2023/05/04 14:23:26;;;;;;;1.38;0.93;;;;;;;;;;5089867;28;20055;-79
2023/05/04 14:25:52;;;;;;;0.25;0.25;;;;;;;;;;5089113;28;20244;-80
2023/05/04 14:28:17;;;;;;;1.65;0.93;;;;;;;;;;5089357;28;20070;-80
2023/05/04 14:30:43;;;;;;;4.70;1.95;;;;;;;;;;5089573;28;20535;-80
2023/05/04 14:33:08;;;;;;;0.30;0.30;;;;;;;;;;5071889;28;20073;-80
2023/05/04 14:35:36;;;;;;;2.95;1.38;;;;;;;;;;5089301;28;20032;-80
2023/05/04 14:38:01;;;;;;;0.73;0.50;;;;;;;;;;5087775;28;20078;-80